Station Historical Data
Daily Summary for December 8, 2017 Units:  English    Metric   Both
« Previous Day
Next Day »
Daily Weekly Monthly Yearly Custom
  High: Low: Average:
Temperature: 31.1 °F 24.3 °F 27.9 °F
Dew Point: 20.8 °F 13.5 °F 16.7 °F
Humidity: 84% 49% 63%
Wind Speed: 13.0mph 0.0mph 6.3mph
Wind Gust: 22.0mph - -
Wind- - SW
Pressure: 30.01 in 29.90 in -
Precipitation: 0.01 in    
Historical Graphs
 
 
Tabular Data for December 8, 2017
Time Temperature Dew Point Pressure Wind Wind Speed Wind Gust Humidity Rainfall Rate (Hourly)
00:00 28.2 °F 14.1 °F 29.99 in West 5.0 mph 10.0 mph 55% 0.00 in
00:05 28.2 °F 14.1 °F 29.98 in NNW 6.0 mph 13.0 mph 55% 0.00 in
00:10 28.3 °F 14.2 °F 29.99 in WSW 4.0 mph 10.0 mph 55% 0.00 in
00:15 28.4 °F 14.3 °F 29.99 in WSW 4.0 mph 10.0 mph 55% 0.00 in
00:20 28.3 °F 14.2 °F 29.98 in West 7.0 mph 10.0 mph 55% 0.00 in
00:25 28.4 °F 13.9 °F 29.98 in West 6.0 mph 10.0 mph 54% 0.00 in
00:30 28.5 °F 13.5 °F 29.98 in WSW 4.0 mph 8.0 mph 53% 0.00 in
00:35 28.5 °F 13.5 °F 29.98 in West 3.0 mph 9.0 mph 53% 0.00 in
00:45 28.5 °F 13.5 °F 29.98 in West 6.0 mph 8.0 mph 53% 0.00 in
00:50 28.5 °F 13.5 °F 29.98 in WSW 5.0 mph 11.0 mph 53% 0.00 in
00:55 28.5 °F 13.5 °F 29.98 in WSW 5.0 mph 12.0 mph 53% 0.00 in
01:00 28.5 °F 13.5 °F 29.98 in WSW 6.0 mph 12.0 mph 53% 0.00 in
01:10 28.3 °F 13.8 °F 29.98 in West 9.0 mph 9.0 mph 54% 0.00 in
01:20 28.3 °F 14.2 °F 29.98 in WSW 3.0 mph 10.0 mph 55% 0.00 in
01:25 28.3 °F 14.2 °F 29.98 in WSW 4.0 mph 10.0 mph 55% 0.00 in
01:30 28.2 °F 14.5 °F 29.98 in West 4.0 mph 8.0 mph 56% 0.00 in
01:35 28.2 °F 14.5 °F 29.98 in WSW 4.0 mph 7.0 mph 56% 0.00 in
01:40 28.2 °F 14.5 °F 29.98 in WSW 3.0 mph 8.0 mph 56% 0.00 in
01:45 28.2 °F 14.5 °F 29.97 in West 5.0 mph 10.0 mph 56% 0.00 in
01:50 28.1 °F 14.8 °F 29.98 in West 1.0 mph 7.0 mph 57% 0.00 in
01:55 28.1 °F 14.8 °F 29.98 in West 4.0 mph 8.0 mph 57% 0.00 in
02:00 28.1 °F 14.8 °F 29.98 in WSW 4.0 mph 8.0 mph 57% 0.00 in
02:05 28.1 °F 15.2 °F 29.98 in WSW 4.0 mph 9.0 mph 58% 0.00 in
02:10 28.1 °F 15.2 °F 29.98 in WSW 6.0 mph 9.0 mph 58% 0.00 in
02:15 28.1 °F 15.6 °F 29.99 in SW 5.0 mph 10.0 mph 59% 0.00 in
02:25 28.1 °F 16.0 °F 29.99 in WNW 4.0 mph 10.0 mph 60% 0.00 in
02:30 28.0 °F 16.3 °F 29.99 in West 6.0 mph 10.0 mph 61% 0.00 in
02:35 28.0 °F 16.3 °F 29.99 in West 6.0 mph 12.0 mph 61% 0.00 in
02:40 28.0 °F 16.6 °F 29.99 in West 6.0 mph 12.0 mph 62% 0.00 in
02:45 28.0 °F 16.6 °F 29.99 in West 5.0 mph 11.0 mph 62% 0.00 in
02:50 27.9 °F 16.6 °F 29.99 in WSW 4.0 mph 7.0 mph 62% 0.00 in
02:55 27.8 °F 16.8 °F 29.99 in WSW 4.0 mph 12.0 mph 63% 0.00 in
03:00 27.8 °F 16.8 °F 29.99 in West 3.0 mph 13.0 mph 63% 0.00 in
03:05 27.7 °F 17.1 °F 29.99 in West 6.0 mph 13.0 mph 64% 0.00 in
03:10 27.6 °F 17.4 °F 29.99 in West 4.0 mph 13.0 mph 65% 0.00 in
03:15 27.6 °F 17.4 °F 30.00 in West 4.0 mph 11.0 mph 65% 0.00 in
03:20 27.4 °F 17.5 °F 30.00 in WSW 7.0 mph 9.0 mph 66% 0.00 in
03:25 27.3 °F 17.4 °F 29.99 in West 9.0 mph 9.0 mph 66% 0.00 in
03:35 27.0 °F 17.1 °F 30.00 in West 2.0 mph 7.0 mph 66% 0.00 in
03:40 26.7 °F 16.9 °F 30.00 in West 4.0 mph 10.0 mph 66% 0.00 in
03:50 26.6 °F 17.1 °F 30.00 in West 5.0 mph 13.0 mph 67% 0.00 in
04:00 26.5 °F 17.4 °F 30.00 in West 6.0 mph 11.0 mph 68% 0.00 in
04:05 26.5 °F 17.4 °F 30.00 in West 5.0 mph 11.0 mph 68% 0.00 in
04:10 26.4 °F 17.3 °F 30.00 in NW 1.0 mph 8.0 mph 68% 0.00 in
04:15 26.4 °F 17.6 °F 30.00 in West 4.0 mph 9.0 mph 69% 0.00 in
04:20 26.4 °F 17.6 °F 30.00 in West 4.0 mph 10.0 mph 69% 0.00 in
04:25 26.5 °F 17.7 °F 30.00 in West 5.0 mph 11.0 mph 69% 0.00 in
04:35 26.4 °F 17.3 °F 30.00 in West 3.0 mph 11.0 mph 68% 0.00 in
04:40 26.3 °F 17.2 °F 29.99 in West 5.0 mph 11.0 mph 68% 0.00 in
04:45 26.3 °F 17.2 °F 30.00 in WNW 7.0 mph 15.0 mph 68% 0.00 in
04:50 26.3 °F 16.8 °F 30.00 in West 7.0 mph 16.0 mph 67% 0.00 in
04:55 26.3 °F 16.5 °F 30.00 in West 7.0 mph 16.0 mph 66% 0.00 in
05:00 26.1 °F 16.3 °F 30.00 in West 7.0 mph 16.0 mph 66% 0.00 in
05:05 26.1 °F 16.3 °F 30.00 in West 7.0 mph 16.0 mph 66% 0.00 in
05:10 26.1 °F 15.9 °F 30.00 in West 8.0 mph 14.0 mph 65% 0.00 in
05:15 26.1 °F 15.9 °F 30.00 in West 7.0 mph 12.0 mph 65% 0.00 in
05:20 26.0 °F 15.1 °F 30.00 in West 7.0 mph 13.0 mph 63% 0.00 in
05:25 26.0 °F 15.1 °F 30.00 in West 7.0 mph 12.0 mph 63% 0.00 in
05:35 25.9 °F 15.0 °F 29.99 in West 5.0 mph 9.0 mph 63% 0.00 in
05:40 25.9 °F 15.0 °F 29.99 in WSW 4.0 mph 10.0 mph 63% 0.00 in
05:45 25.9 °F 14.7 °F 30.00 in WSW 2.0 mph 7.0 mph 62% 0.00 in
05:55 26.1 °F 15.9 °F 30.00 in SW 3.0 mph 6.0 mph 65% 0.00 in
06:00 26.1 °F 17.0 °F 30.00 in SSW 4.0 mph 11.0 mph 68% 0.00 in
06:05 25.6 °F 18.5 °F 30.00 in SW 5.0 mph 11.0 mph 74% 0.00 in
06:20 24.5 °F 19.5 °F 30.00 in West 2.0 mph 4.0 mph 81% 0.00 in
06:35 24.4 °F 20.0 °F 30.00 in Calm   3.0 mph 83% 0.00 in
06:40 24.6 °F 20.5 °F 30.00 in NW 2.0 mph 13.0 mph 84% 0.00 in
06:45 24.8 °F 20.7 °F 30.00 in SW 1.0 mph 8.0 mph 84% 0.00 in
06:50 24.9 °F 20.8 °F 30.00 in SW 6.0 mph 10.0 mph 84% 0.00 in
06:55 24.9 °F 20.8 °F 29.99 in South 3.0 mph 10.0 mph 84% 0.00 in
07:00 24.9 °F 20.8 °F 30.00 in SW 6.0 mph 11.0 mph 84% 0.00 in
07:10 24.9 °F 20.5 °F 29.99 in SW 5.0 mph 9.0 mph 83% 0.00 in
07:20 25.0 °F 20.3 °F 29.99 in SW 6.0 mph 11.0 mph 82% 0.00 in
07:25 25.0 °F 20.3 °F 29.99 in SW 7.0 mph 14.0 mph 82% 0.00 in
07:30 25.1 °F 20.1 °F 30.00 in SW 9.0 mph 13.0 mph 81% 0.00 in
07:35 25.0 °F 20.0 °F 30.00 in SW 6.0 mph 13.0 mph 81% 0.00 in
07:40 25.0 °F 20.0 °F 30.00 in SW 6.0 mph 13.0 mph 81% 0.00 in
07:45 24.9 °F 19.9 °F 30.00 in SSW 6.0 mph 13.0 mph 81% 0.00 in
07:50 24.8 °F 19.8 °F 30.00 in SW 6.0 mph 10.0 mph 81% 0.00 in
07:55 24.8 °F 19.8 °F 30.00 in SE 8.0 mph 13.0 mph 81% 0.00 in
08:00 24.6 °F 19.6 °F 29.99 in SSW 7.0 mph 13.0 mph 81% 0.00 in
08:05 24.5 °F 19.5 °F 29.99 in South 3.0 mph 15.0 mph 81% 0.00 in
08:10 24.5 °F 19.5 °F 30.00 in SSW 7.0 mph 15.0 mph 81% 0.00 in
08:15 24.3 °F 19.6 °F 30.00 in SSW 6.0 mph 13.0 mph 82% 0.00 in
08:20 24.3 °F 19.6 °F 30.00 in SSW 6.0 mph 13.0 mph 82% 0.00 in
08:25 24.3 °F 19.6 °F 30.00 in SSW 6.0 mph 13.0 mph 82% 0.00 in
08:30 24.5 °F 19.8 °F 30.00 in SSW 6.0 mph 13.0 mph 82% 0.00 in
08:35 24.7 °F 20.0 °F 30.00 in SSW 6.0 mph 14.0 mph 82% 0.00 in
08:40 24.8 °F 19.8 °F 30.00 in SSW 7.0 mph 14.0 mph 81% 0.00 in
08:45 25.0 °F 20.0 °F 30.00 in SW 7.0 mph 17.0 mph 81% 0.00 in
08:50 25.2 °F 20.2 °F 30.01 in SSW 7.0 mph 17.0 mph 81% 0.00 in
09:00 25.4 °F 20.1 °F 30.00 in SW 7.0 mph 18.0 mph 80% 0.00 in
09:05 25.5 °F 19.9 °F 30.00 in South 5.0 mph 13.0 mph 79% 0.00 in
09:10 25.6 °F 20.0 °F 30.00 in SSW 9.0 mph 17.0 mph 79% 0.00 in
09:15 25.8 °F 19.9 °F 30.00 in SSE 4.0 mph 12.0 mph 78% 0.00 in
09:25 26.0 °F 19.8 °F 30.00 in SSW 7.0 mph 15.0 mph 77% 0.00 in
09:30 26.0 °F 19.8 °F 30.00 in SSW 7.0 mph 17.0 mph 77% 0.00 in
09:35 26.0 °F 19.8 °F 29.99 in SSW 8.0 mph 17.0 mph 77% 0.00 in
09:40 26.0 °F 19.5 °F 30.00 in WSW 3.0 mph 17.0 mph 76% 0.00 in
09:55 26.1 °F 19.3 °F 29.99 in SSW 7.0 mph 16.0 mph 75% 0.00 in
10:00 26.1 °F 19.3 °F 30.00 in SSW 7.0 mph 16.0 mph 75% 0.00 in
10:05 26.2 °F 19.4 °F 30.00 in SSW 8.0 mph 19.0 mph 75% 0.00 in
10:10 26.2 °F 19.4 °F 30.00 in SSW 5.0 mph 14.0 mph 75% 0.00 in
10:15 26.3 °F 19.5 °F 30.00 in WSW 8.0 mph 18.0 mph 75% 0.00 in
10:20 26.4 °F 19.2 °F 30.00 in South 5.0 mph 12.0 mph 74% 0.00 in
10:30 26.5 °F 19.0 °F 30.00 in SSW 7.0 mph 14.0 mph 73% 0.00 in
10:35 26.6 °F 19.1 °F 30.01 in SSW 7.0 mph 15.0 mph 73% 0.00 in
10:40 26.6 °F 18.8 °F 30.00 in SSW 8.0 mph 16.0 mph 72% 0.00 in
10:45 26.7 °F 18.9 °F 30.01 in SSW 8.0 mph 17.0 mph 72% 0.00 in
10:50 26.8 °F 19.0 °F 30.00 in South 8.0 mph 15.0 mph 72% 0.00 in
10:55 26.9 °F 18.7 °F 30.01 in SSW 9.0 mph 19.0 mph 71% 0.00 in
11:05 27.0 °F 19.2 °F 30.01 in SSW 10.0 mph 19.0 mph 72% 0.00 in
11:10 27.2 °F 18.7 °F 30.00 in SW 11.0 mph 19.0 mph 70% 0.00 in
11:20 27.5 °F 18.7 °F 29.99 in SSW 7.0 mph 19.0 mph 69% 0.00 in
11:25 27.6 °F 18.4 °F 30.00 in SW 12.0 mph 18.0 mph 68% 0.00 in
11:30 27.7 °F 18.2 °F 30.00 in WSW 8.0 mph 13.0 mph 67% 0.00 in
11:35 27.7 °F 17.8 °F 29.99 in SW 9.0 mph 20.0 mph 66% 0.00 in
11:40 27.7 °F 17.8 °F 29.99 in SW 9.0 mph 20.0 mph 66% 0.00 in
11:45 27.7 °F 17.8 °F 29.98 in SW 9.0 mph 22.0 mph 66% 0.00 in
11:50 27.7 °F 17.5 °F 29.98 in South 7.0 mph 16.0 mph 65% 0.00 in
12:00 27.9 °F 17.6 °F 29.98 in SSW 9.0 mph 18.0 mph 65% 0.00 in
12:20 28.2 °F 17.2 °F 29.97 in SW 9.0 mph 20.0 mph 63% 0.00 in
12:25 28.3 °F 17.7 °F 29.97 in SSW 9.0 mph 21.0 mph 64% 0.00 in
12:35 29.6 °F 18.2 °F 29.96 in South 13.0 mph 20.0 mph 62% 0.00 in
12:40 29.5 °F 17.7 °F 29.96 in WSW 11.0 mph 19.0 mph 61% 0.00 in
12:45 29.7 °F 17.9 °F 29.95 in SW 8.0 mph 20.0 mph 61% 0.00 in
12:50 29.7 °F 17.5 °F 29.94 in SW 10.0 mph 20.0 mph 60% 0.00 in
12:55 29.7 °F 17.1 °F 29.96 in SW 10.0 mph 20.0 mph 59% 0.00 in
13:00 29.7 °F 17.1 °F 29.95 in SW 10.0 mph 20.0 mph 59% 0.00 in
13:05 29.6 °F 16.6 °F 29.93 in SW 10.0 mph 21.0 mph 58% 0.00 in
13:10 29.8 °F 16.8 °F 29.94 in WSW 12.0 mph 19.0 mph 58% 0.00 in
13:15 29.7 °F 16.3 °F 29.93 in WSW 7.0 mph 20.0 mph 57% 0.00 in
13:25 29.7 °F 15.9 °F 29.94 in SW 9.0 mph 19.0 mph 56% 0.00 in
13:30 30.1 °F 16.7 °F 29.93 in SW 9.0 mph 22.0 mph 57% 0.00 in
13:35 30.1 °F 16.3 °F 29.93 in SW 9.0 mph 22.0 mph 56% 0.00 in
13:40 30.0 °F 15.8 °F 29.92 in West 11.0 mph 20.0 mph 55% 0.00 in
13:45 30.1 °F 15.9 °F 29.92 in SW 11.0 mph 22.0 mph 55% 0.00 in
13:50 30.4 °F 16.6 °F 29.93 in South 6.0 mph 19.0 mph 56% 0.00 in
13:55 30.5 °F 15.8 °F 29.93 in SW 9.0 mph 20.0 mph 54% 0.00 in
14:00 30.3 °F 15.6 °F 29.92 in SSW 9.0 mph 20.0 mph 54% 0.00 in
14:05 30.6 °F 15.5 °F 29.93 in SSW 9.0 mph 18.0 mph 53% 0.00 in
14:15 31.0 °F 15.8 °F 29.92 in SW 8.0 mph 16.0 mph 53% 0.00 in
14:30 30.8 °F 14.8 °F 29.92 in SW 6.0 mph 17.0 mph 51% 0.00 in
14:35 31.0 °F 15.0 °F 29.92 in South 10.0 mph 17.0 mph 51% 0.00 in
14:40 31.0 °F 15.0 °F 29.91 in SSW 7.0 mph 19.0 mph 51% 0.00 in
14:45 31.1 °F 15.1 °F 29.92 in WSW 9.0 mph 19.0 mph 51% 0.00 in
14:55 31.1 °F 14.6 °F 29.92 in SSW 7.0 mph 17.0 mph 50% 0.00 in
15:00 31.0 °F 14.5 °F 29.93 in SW 9.0 mph 19.0 mph 50% 0.00 in
15:05 31.1 °F 15.1 °F 29.92 in SW 8.0 mph 19.0 mph 51% 0.01 in
15:10 31.1 °F 14.1 °F 29.92 in SW 8.0 mph 18.0 mph 49% 0.01 in
15:40 31.1 °F 15.5 °F 29.92 in SW 7.0 mph 18.0 mph 52% 0.01 in
15:45 31.1 °F 15.5 °F 29.91 in SW 9.0 mph 18.0 mph 52% 0.01 in
15:50 31.1 °F 15.5 °F 29.90 in SW 7.0 mph 16.0 mph 52% 0.01 in
15:55 31.0 °F 15.8 °F 29.91 in WSW 4.0 mph 15.0 mph 53% 0.01 in
16:00 31.0 °F 15.8 °F 29.91 in SW 10.0 mph 16.0 mph 53% 0.01 in
16:10 31.0 °F 15.4 °F 29.91 in WSW 10.0 mph 20.0 mph 52% 0.00 in
16:20 30.8 °F 15.7 °F 29.92 in SW 9.0 mph 18.0 mph 53% 0.00 in
16:25 30.8 °F 15.7 °F 29.91 in SW 9.0 mph 21.0 mph 53% 0.00 in
16:30 30.9 °F 16.2 °F 29.92 in SW 9.0 mph 21.0 mph 54% 0.00 in
16:35 30.9 °F 16.2 °F 29.92 in WSW 4.0 mph 14.0 mph 54% 0.00 in
16:50 30.9 °F 17.0 °F 29.92 in WSW 9.0 mph 16.0 mph 56% 0.00 in
17:00 30.4 °F 16.1 °F 29.92 in WSW 5.0 mph 10.0 mph 55% 0.00 in
17:05 30.4 °F 15.7 °F 29.91 in SSW 4.0 mph 15.0 mph 54% 0.00 in
17:15 30.3 °F 16.0 °F 29.91 in SSW 6.0 mph 13.0 mph 55% 0.00 in
17:20 30.5 °F 16.7 °F 29.91 in SW 6.0 mph 15.0 mph 56% 0.00 in
17:25 30.3 °F 15.6 °F 29.90 in SW 6.0 mph 16.0 mph 54% 0.00 in
17:30 30.1 °F 15.4 °F 29.90 in SSW 6.0 mph 16.0 mph 54% 0.00 in
17:35 30.2 °F 15.5 °F 29.91 in SW 7.0 mph 17.0 mph 54% 0.00 in
17:40 30.1 °F 15.4 °F 29.91 in SW 6.0 mph 13.0 mph 54% 0.00 in
17:45 30.2 °F 15.5 °F 29.92 in SSW 6.0 mph 13.0 mph 54% 0.00 in
17:55 30.2 °F 15.5 °F 29.93 in SSE 6.0 mph 13.0 mph 54% 0.00 in
18:00 30.3 °F 15.6 °F 29.93 in South 8.0 mph 9.0 mph 54% 0.00 in
18:05 30.3 °F 15.6 °F 29.93 in South 6.0 mph 10.0 mph 54% 0.00 in
18:10 30.3 °F 16.0 °F 29.93 in SW 8.0 mph 10.0 mph 55% 0.00 in
18:15 30.3 °F 16.0 °F 29.93 in SSW 5.0 mph 11.0 mph 55% 0.00 in
18:20 30.2 °F 16.0 °F 29.93 in SSW 6.0 mph 12.0 mph 55% 0.00 in
18:25 30.1 °F 15.9 °F 29.93 in SSW 5.0 mph 12.0 mph 55% 0.00 in
18:30 30.1 °F 15.9 °F 29.93 in SSW 5.0 mph 11.0 mph 55% 0.00 in
18:35 30.1 °F 16.3 °F 29.93 in SSW 5.0 mph 11.0 mph 56% 0.00 in
18:45 30.1 °F 15.9 °F 29.93 in SW 9.0 mph 13.0 mph 55% 0.00 in
19:00 29.7 °F 15.5 °F 29.93 in WSW 3.0 mph 17.0 mph 55% 0.00 in
19:05 29.7 °F 15.1 °F 29.93 in SW 9.0 mph 11.0 mph 54% 0.00 in
19:10 29.6 °F 15.4 °F 29.93 in SSW 4.0 mph 15.0 mph 55% 0.00 in
19:20 29.4 °F 15.2 °F 29.92 in SW 3.0 mph 13.0 mph 55% 0.00 in
19:25 29.3 °F 15.1 °F 29.92 in SSW 6.0 mph 13.0 mph 55% 0.00 in
19:30 29.2 °F 14.6 °F 29.92 in SSW 5.0 mph 12.0 mph 54% 0.00 in
19:45 28.8 °F 15.1 °F 29.92 in SSW 6.0 mph 11.0 mph 56% 0.00 in
19:50 28.8 °F 15.1 °F 29.93 in SSW 4.0 mph 13.0 mph 56% 0.00 in
19:55 28.8 °F 15.1 °F 29.92 in WSW 7.0 mph 12.0 mph 56% 0.00 in
20:00 28.7 °F 15.0 °F 29.92 in SSW 6.0 mph 12.0 mph 56% 0.00 in
20:15 28.6 °F 14.9 °F 29.94 in WSW 9.0 mph 14.0 mph 56% 0.00 in
20:25 28.5 °F 14.8 °F 29.91 in South 4.0 mph 14.0 mph 56% 0.00 in
20:40 28.3 °F 15.0 °F 29.92 in SSW 6.0 mph 14.0 mph 57% 0.00 in
20:45 28.2 °F 14.9 °F 29.93 in SSW 6.0 mph 13.0 mph 57% 0.00 in
21:00 28.2 °F 14.9 °F 29.93 in SSW 7.0 mph 15.0 mph 57% 0.00 in
21:05 28.1 °F 15.2 °F 29.93 in SSW 6.0 mph 15.0 mph 58% 0.00 in
21:10 28.2 °F 15.3 °F 29.93 in South 5.0 mph 11.0 mph 58% 0.00 in
21:15 28.2 °F 15.3 °F 29.93 in SSE 3.0 mph 14.0 mph 58% 0.00 in
21:20 28.2 °F 15.3 °F 29.92 in South 6.0 mph 15.0 mph 58% 0.00 in
21:30 28.2 °F 14.9 °F 29.93 in South 8.0 mph 13.0 mph 57% 0.00 in
21:35 28.1 °F 15.2 °F 29.94 in SSW 7.0 mph 16.0 mph 58% 0.00 in
21:40 28.1 °F 15.2 °F 29.94 in SSW 7.0 mph 16.0 mph 58% 0.00 in
21:45 28.1 °F 15.2 °F 29.94 in SSW 7.0 mph 13.0 mph 58% 0.00 in
21:50 28.0 °F 15.1 °F 29.93 in SSW 6.0 mph 13.0 mph 58% 0.00 in
22:00 28.0 °F 15.5 °F 29.93 in SSW 9.0 mph 14.0 mph 59% 0.00 in
22:10 28.0 °F 15.5 °F 29.93 in SSW 6.0 mph 12.0 mph 59% 0.00 in
22:30 28.0 °F 15.5 °F 29.92 in South 11.0 mph 15.0 mph 59% 0.00 in
22:35 28.0 °F 15.5 °F 29.92 in SSW 3.0 mph 14.0 mph 59% 0.00 in
22:45 28.0 °F 15.9 °F 29.92 in SSW 4.0 mph 10.0 mph 60% 0.00 in
22:50 27.9 °F 15.8 °F 29.92 in SSW 4.0 mph 9.0 mph 60% 0.00 in
22:55 27.9 °F 15.8 °F 29.93 in SSW 5.0 mph 9.0 mph 60% 0.00 in
23:00 27.9 °F 15.8 °F 29.93 in SSW 5.0 mph 11.0 mph 60% 0.00 in
23:05 27.9 °F 15.8 °F 29.93 in South 3.0 mph 9.0 mph 60% 0.00 in
23:10 27.9 °F 16.2 °F 29.93 in SSW 2.0 mph 7.0 mph 61% 0.00 in
23:15 27.9 °F 16.2 °F 29.92 in SSW 5.0 mph 8.0 mph 61% 0.00 in
23:20 28.0 °F 16.3 °F 29.92 in SSW 4.0 mph 10.0 mph 61% 0.00 in
23:25 28.1 °F 16.7 °F 29.92 in SSW 5.0 mph 10.0 mph 62% 0.00 in
23:30 28.1 °F 16.7 °F 29.92 in SSW 5.0 mph 9.0 mph 62% 0.00 in
23:40 28.2 °F 16.5 °F 29.92 in South 8.0 mph 12.0 mph 61% 0.00 in
23:45 28.2 °F 16.5 °F 29.92 in South 6.0 mph 9.0 mph 61% 0.00 in
23:50 28.2 °F 16.5 °F 29.92 in South 3.0 mph 13.0 mph 61% 0.00 in
Buffalo, New York, USA
Compliments of Weather Underground - 2 mb